Time;durP1;ratioP1;P1;durP2;ratioP2;P2;SDS_P1;SDS_P2;PMS_P1;PMS_P2;Temp;Humidity;BMP_temperature;BMP_pressure;BME280_temperature;BME280_humidity;BME280_pressure;Samples;Min_cycle;Max_cycle;Signal;HPM_P1;HPM_P2
2022/06/17 00:02:19;;;;;;;2.40;1.77;;;23.00;55.70;;;;;;4960908;28;87387;-64
2022/06/17 00:04:45;;;;;;;2.30;1.80;;;23.00;55.80;;;;;;4960553;28;86923;-64
2022/06/17 00:07:17;;;;;;;2.78;2.22;;;23.00;55.90;;;;;;4959357;28;88506;-64
2022/06/17 00:09:42;;;;;;;2.20;2.00;;;23.00;55.80;;;;;;4960906;28;89209;-63
2022/06/17 00:12:13;;;;;;;2.80;1.90;;;23.00;55.70;;;;;;4954440;28;87204;-64
2022/06/17 00:17:23;;;;;;;2.60;1.90;;;23.00;55.80;;;;;;4960634;28;87241;-64
2022/06/17 00:19:57;;;;;;;2.22;1.90;;;23.00;55.70;;;;;;4959939;28;87988;-64
2022/06/17 00:22:25;;;;;;;2.38;1.60;;;23.00;55.90;;;;;;4960570;28;87052;-64
2022/06/17 00:24:52;;;;;;;2.35;1.88;;;23.00;55.80;;;;;;4960620;28;86859;-63
2022/06/17 00:27:18;;;;;;;2.92;1.83;;;23.00;55.90;;;;;;4959904;28;87714;-63
2022/06/17 00:29:44;;;;;;;1.63;1.52;;;23.00;55.80;;;;;;4959701;28;87294;-64
2022/06/17 00:32:09;;;;;;;2.75;2.00;;;23.00;55.80;;;;;;4959515;28;87919;-63
2022/06/17 00:34:35;;;;;;;2.15;1.77;;;23.00;55.90;;;;;;4960366;28;86998;-63
2022/06/17 00:37:02;;;;;;;2.08;1.65;;;22.90;56.00;;;;;;4960492;28;87403;-64
2022/06/17 00:39:32;;;;;;;2.20;1.90;;;23.00;55.90;;;;;;4960496;28;87093;-64
2022/06/17 00:42:14;;;;;;;;;;;23.00;55.90;;;;;;4960990;28;87180;-64
2022/06/17 00:44:59;;;;;;;2.30;1.90;;;23.00;55.90;;;;;;4962016;28;86926;-63
2022/06/17 00:47:39;;;;;;;2.83;1.90;;;23.00;56.00;;;;;;4960152;28;88560;-63
2022/06/17 00:50:23;;;;;;;2.80;1.98;;;23.00;56.00;;;;;;4960535;28;87818;-63
2022/06/17 00:52:50;;;;;;;1.60;1.50;;;23.00;55.80;;;;;;4960154;28;87228;-63
2022/06/17 00:55:57;;;;;;;3.92;2.10;;;23.00;55.80;;;;;;4959777;28;87059;-63
2022/06/17 00:58:32;;;;;;;2.05;1.65;;;23.00;55.90;;;;;;4954444;28;89332;-64
2022/06/17 01:01:01;;;;;;;2.10;1.77;;;23.00;55.90;;;;;;4959880;28;88219;-64
2022/06/17 01:03:34;;;;;;;2.13;1.80;;;23.00;55.90;;;;;;4960035;28;87418;-64
2022/06/17 01:06:15;;;;;;;2.47;2.05;;;23.00;55.80;;;;;;4958198;28;88814;-64
2022/06/17 01:11:34;;;;;;;2.42;1.63;;;23.00;55.90;;;;;;4959579;28;87348;-64
2022/06/17 01:14:03;;;;;;;3.22;2.00;;;23.00;56.00;;;;;;4960607;28;86891;-63
2022/06/17 01:16:36;;;;;;;2.03;1.88;;;23.00;56.00;;;;;;4960378;28;87485;-64
2022/06/17 01:19:24;;;;;;;2.25;1.70;;;23.00;56.00;;;;;;4960020;28;88191;-64
2022/06/17 01:22:20;;;;;;;2.45;1.80;;;23.00;56.00;;;;;;4959824;28;87684;-64
2022/06/17 01:24:48;;;;;;;2.70;2.08;;;23.00;56.00;;;;;;4958722;28;88353;-64
2022/06/17 01:27:19;;;;;;;1.77;1.50;;;23.00;56.00;;;;;;4959671;28;86938;-64
2022/06/17 01:29:45;;;;;;;3.10;2.10;;;23.00;56.00;;;;;;4959390;28;87903;-63
2022/06/17 01:32:12;;;;;;;2.28;1.65;;;23.00;56.10;;;;;;4960105;28;87278;-63
2022/06/17 01:34:38;;;;;;;2.35;1.70;;;23.00;56.00;;;;;;4951210;28;87052;-63
2022/06/17 01:37:05;;;;;;;2.92;1.90;;;23.00;56.00;;;;;;4956900;28;87119;-64
2022/06/17 01:39:31;;;;;;;1.73;1.50;;;23.00;56.00;;;;;;4972925;28;89952;-64
2022/06/17 01:41:57;;;;;;;2.10;1.90;;;22.90;56.20;;;;;;4957739;28;87379;-63
2022/06/17 01:44:33;;;;;;;1.67;1.58;;;22.90;55.90;;;;;;4958280;28;87284;-63
2022/06/17 01:47:01;;;;;;;2.25;1.83;;;22.90;55.90;;;;;;4958394;28;87327;-64
2022/06/17 01:49:34;;;;;;;2.25;1.80;;;22.90;55.90;;;;;;4958555;28;89065;-64
2022/06/17 01:52:02;;;;;;;2.05;1.75;;;22.90;55.90;;;;;;4959247;28;89170;-63
2022/06/17 01:54:35;;;;;;;1.83;1.70;;;22.90;55.90;;;;;;4958988;28;87406;-64
2022/06/17 01:57:03;;;;;;;2.63;1.80;;;22.90;56.10;;;;;;5043261;22;87092;-59
2022/06/17 01:59:38;;;;;;;2.03;1.60;;;22.90;56.10;;;;;;4977583;28;91223;-61
2022/06/17 02:02:05;;;;;;;2.83;2.05;;;23.00;56.30;;;;;;4979901;28;87374;-62
2022/06/17 02:04:35;;;;;;;1.77;1.50;;;23.00;56.10;;;;;;4979154;28;87726;-61
2022/06/17 02:07:15;;;;;;;2.85;2.00;;;22.90;56.20;;;;;;4979532;28;87142;-61
2022/06/17 02:09:41;;;;;;;1.88;1.75;;;22.90;56.10;;;;;;4978968;28;87674;-62
2022/06/17 02:12:08;;;;;;;1.88;1.70;;;22.90;56.20;;;;;;4978807;28;87337;-61
2022/06/17 02:14:34;;;;;;;1.60;1.50;;;22.90;56.10;;;;;;4977661;28;88100;-62
2022/06/17 02:17:03;;;;;;;1.80;1.70;;;22.90;56.20;;;;;;4978642;28;87118;-61
2022/06/17 02:19:31;;;;;;;;;;;22.90;56.20;;;;;;4978627;28;89495;-62
2022/06/17 02:22:04;;;;;;;1.88;1.45;;;22.90;56.30;;;;;;4977992;28;90188;-61
2022/06/17 02:24:29;;;;;;;3.22;1.80;;;22.90;56.10;;;;;;4972130;28;87454;-62
2022/06/17 02:26:59;;;;;;;1.80;1.70;;;22.90;56.20;;;;;;4978388;28;86942;-62
2022/06/17 02:29:27;;;;;;;1.70;1.60;;;22.90;56.20;;;;;;4978134;28;88497;-62
2022/06/17 02:31:57;;;;;;;1.70;1.60;;;22.90;56.30;;;;;;4978037;28;89525;-62
2022/06/17 02:34:23;;;;;;;2.00;1.80;;;22.90;56.20;;;;;;4978624;28;87403;-62
2022/06/17 02:36:56;;;;;;;1.75;1.60;;;22.90;56.30;;;;;;4977901;28;87469;-61
2022/06/17 02:39:22;;;;;;;2.65;1.77;;;22.90;56.30;;;;;;4978484;28;89152;-62
2022/06/17 02:41:54;;;;;;;2.55;1.90;;;22.90;56.20;;;;;;4978423;28;88026;-61
2022/06/17 02:44:36;;;;;;;2.65;2.03;;;22.90;56.30;;;;;;4978602;28;88282;-62
2022/06/17 02:47:02;;;;;;;2.20;1.73;;;22.90;56.10;;;;;;4976842;28;89027;-61
2022/06/17 02:49:32;;;;;;;2.35;1.88;;;22.90;56.20;;;;;;4977911;28;87279;-61
2022/06/17 02:52:01;;;;;;;2.00;1.80;;;22.90;56.30;;;;;;4976216;28;89550;-61
2022/06/17 02:54:40;;;;;;;1.83;1.70;;;22.90;56.30;;;;;;4977590;28;87620;-62
2022/06/17 02:57:15;;;;;;;;;;;22.90;56.10;;;;;;4977925;28;86417;-61
2022/06/17 02:59:48;;;;;;;2.42;1.88;;;22.90;56.30;;;;;;4977808;28;87587;-62
2022/06/17 03:02:26;;;;;;;3.33;1.70;;;22.90;56.30;;;;;;4976527;28;90918;-62
2022/06/17 03:04:53;;;;;;;1.80;1.70;;;22.90;56.20;;;;;;4977247;28;87894;-62
2022/06/17 03:07:25;;;;;;;3.03;1.80;;;22.90;56.40;;;;;;4977767;28;86888;-62
2022/06/17 03:09:51;;;;;;;2.35;1.70;;;22.90;56.40;;;;;;4977982;28;87929;-62
2022/06/17 03:12:22;;;;;;;1.73;1.63;;;22.80;56.30;;;;;;4977559;28;88016;-61
2022/06/17 03:15:10;;;;;;;1.50;1.40;;;22.90;56.30;;;;;;4977308;28;87033;-62
2022/06/17 03:17:39;;;;;;;1.52;1.42;;;22.80;56.20;;;;;;4977382;28;88650;-62
2022/06/17 03:20:15;;;;;;;1.98;1.70;;;22.80;56.30;;;;;;4975836;28;88903;-61
2022/06/17 03:22:42;;;;;;;1.75;1.48;;;22.90;56.40;;;;;;4977957;28;87126;-61
2022/06/17 03:25:21;;;;;;;3.38;2.15;;;22.80;56.20;;;;;;4978514;28;87075;-62
2022/06/17 03:27:59;;;;;;;2.05;1.70;;;22.80;56.30;;;;;;4977831;28;87579;-62
2022/06/17 03:30:36;;;;;;;2.03;1.83;;;22.80;56.30;;;;;;4976063;28;88935;-62
2022/06/17 03:33:22;;;;;;;1.60;1.50;;;22.80;56.30;;;;;;4977203;28;88213;-62
2022/06/17 03:35:55;;;;;;;1.92;1.73;;;22.80;56.30;;;;;;4977159;28;87659;-61
2022/06/17 03:38:37;;;;;;;2.55;1.58;;;22.80;56.30;;;;;;4976954;28;87273;-62
2022/06/17 03:41:26;;;;;;;1.85;1.75;;;22.80;56.40;;;;;;4976848;28;87398;-62
2022/06/17 03:44:04;;;;;;;2.25;1.85;;;22.80;56.40;;;;;;4980896;28;87905;-62
2022/06/17 03:46:36;;;;;;;1.77;1.67;;;22.80;56.30;;;;;;4981193;28;87472;-62
2022/06/17 03:49:06;;;;;;;3.17;2.20;;;22.80;56.30;;;;;;4980698;28;86398;-61
2022/06/17 03:51:36;;;;;;;1.70;1.60;;;22.80;56.40;;;;;;4980040;28;88870;-62
2022/06/17 03:54:02;;;;;;;2.20;1.65;;;22.80;56.40;;;;;;4978805;28;89736;-62
2022/06/17 03:56:33;;;;;;;1.80;1.70;;;22.80;56.40;;;;;;4978125;28;87983;-61
2022/06/17 03:59:05;;;;;;;2.00;1.60;;;22.80;56.40;;;;;;4979298;28;87338;-62
2022/06/17 04:01:58;;;;;;;1.70;1.60;;;22.80;56.30;;;;;;4980048;28;87819;-62
2022/06/17 04:04:31;;;;;;;1.92;1.73;;;22.80;56.30;;;;;;4980591;28;87831;-61
2022/06/17 04:06:57;;;;;;;1.95;1.63;;;22.80;56.40;;;;;;4981049;28;86887;-62
2022/06/17 04:09:32;;;;;;;1.92;1.80;;;22.80;56.40;;;;;;4979445;28;87202;-62
2022/06/17 04:12:05;;;;;;;2.20;1.88;;;22.80;57.10;;;;;;4980251;28;88317;-62
2022/06/17 04:15:08;;;;;;;1.90;1.70;;;22.80;56.40;;;;;;4975261;28;87883;-62
2022/06/17 04:17:40;;;;;;;1.92;1.73;;;22.80;56.40;;;;;;4980233;28;87164;-62
2022/06/17 04:20:31;;;;;;;2.63;1.50;;;22.80;56.40;;;;;;4980225;28;88591;-62
2022/06/17 04:23:02;;;;;;;1.52;1.42;;;22.80;56.40;;;;;;4979660;28;88674;-62
2022/06/17 04:25:45;;;;;;;1.83;1.70;;;22.80;56.40;;;;;;4979424;28;88313;-62
2022/06/17 04:28:25;;;;;;;1.92;1.58;;;22.80;56.40;;;;;;4979798;28;87008;-63
2022/06/17 04:31:03;;;;;;;1.50;1.40;;;22.80;56.40;;;;;;4972894;28;87011;-62
2022/06/17 04:33:44;;;;;;;1.90;1.80;;;22.80;56.60;;;;;;4978042;28;89223;-62
2022/06/17 04:36:17;;;;;;;1.60;1.50;;;22.80;56.40;;;;;;4979300;28;87540;-62
2022/06/17 04:39:00;;;;;;;2.00;1.73;;;22.80;56.40;;;;;;4978143;28;87111;-62
2022/06/17 04:41:31;;;;;;;1.55;1.45;;;22.80;56.40;;;;;;4979669;28;86625;-62
2022/06/17 04:43:58;;;;;;;2.17;1.92;;;22.80;56.40;;;;;;4979224;28;88252;-62
2022/06/17 04:46:34;;;;;;;1.77;1.60;;;22.80;56.50;;;;;;4980454;28;88741;-62
2022/06/17 04:49:01;;;;;;;1.85;1.75;;;22.80;56.50;;;;;;4980388;28;87894;-62
2022/06/17 04:51:29;;;;;;;1.80;1.70;;;22.80;56.50;;;;;;4980058;28;86966;-62
2022/06/17 04:53:56;;;;;;;1.83;1.73;;;22.80;56.50;;;;;;4979807;28;88124;-62
2022/06/17 04:56:27;;;;;;;2.40;1.77;;;22.80;56.50;;;;;;4979516;28;88195;-62
2022/06/17 04:58:53;;;;;;;2.15;1.80;;;22.80;56.60;;;;;;4979843;28;86959;-61
2022/06/17 05:01:21;;;;;;;1.50;1.40;;;22.80;56.60;;;;;;4978933;28;87142;-62
2022/06/17 05:03:47;;;;;;;1.65;1.50;;;22.80;56.50;;;;;;4980022;28;88129;-62
2022/06/17 05:06:13;;;;;;;1.75;1.60;;;22.80;56.50;;;;;;4980554;28;86940;-62
2022/06/17 05:08:45;;;;;;;1.85;1.30;;;22.80;56.50;;;;;;4979877;28;87266;-62
2022/06/17 05:11:19;;;;;;;3.53;1.67;;;22.80;56.50;;;;;;4978844;28;87618;-62
2022/06/17 05:14:15;;;;;;;1.77;1.52;;;22.80;56.50;;;;;;4979344;28;89065;-62
2022/06/17 05:16:41;;;;;;;1.83;1.70;;;22.80;56.50;;;;;;4980039;28;88778;-62
2022/06/17 05:19:06;;;;;;;1.80;1.70;;;22.80;56.60;;;;;;4978495;28;87627;-63
2022/06/17 05:21:32;;;;;;;1.55;1.45;;;22.80;56.70;;;;;;4979295;28;87273;-62
2022/06/17 05:24:01;;;;;;;1.63;1.52;;;22.90;56.70;;;;;;4972640;28;87250;-61
2022/06/17 05:26:27;;;;;;;1.45;1.35;;;22.80;56.60;;;;;;4978728;28;87825;-62
2022/06/17 05:28:53;;;;;;;1.70;1.60;;;22.80;56.60;;;;;;4979254;28;86955;-62
2022/06/17 05:31:22;;;;;;;1.70;1.60;;;22.80;56.60;;;;;;4978052;28;90550;-62
2022/06/17 05:33:50;;;;;;;2.75;1.85;;;22.80;56.60;;;;;;4979145;28;89066;-62
2022/06/17 05:36:18;;;;;;;1.95;1.70;;;22.80;56.60;;;;;;4979761;28;88153;-62
2022/06/17 05:38:43;;;;;;;2.08;1.60;;;22.80;56.50;;;;;;4978414;28;87899;-62
2022/06/17 05:41:22;;;;;;;1.92;1.80;;;22.80;56.60;;;;;;4972574;28;87599;-62
2022/06/17 05:43:49;;;;;;;2.25;1.60;;;22.80;56.50;;;;;;4979014;28;88720;-61
2022/06/17 05:46:16;;;;;;;1.70;1.60;;;22.80;56.70;;;;;;4978773;28;87265;-62
2022/06/17 05:48:41;;;;;;;1.90;1.80;;;22.80;56.70;;;;;;4993397;28;86986;-61
2022/06/17 05:51:10;;;;;;;2.15;1.80;;;22.80;56.70;;;;;;4976208;28;88943;-61
2022/06/17 05:53:36;;;;;;;1.73;1.63;;;22.80;56.60;;;;;;4978579;28;88121;-61
2022/06/17 05:56:02;;;;;;;2.50;1.85;;;22.90;56.30;;;;;;4976944;28;90968;-61
2022/06/17 05:58:30;;;;;;;7.53;2.67;;;22.90;56.20;;;;;;4976437;28;87276;-62
2022/06/17 06:00:56;;;;;;;4.95;2.85;;;22.90;55.70;;;;;;4977354;28;87358;-61
2022/06/17 06:03:25;;;;;;;5.95;3.40;;;22.80;55.90;;;;;;4977298;28;90053;-62
2022/06/17 06:05:51;;;;;;;6.43;3.13;;;22.80;56.00;;;;;;4978556;28;89146;-61
2022/06/17 06:08:19;;;;;;;7.00;3.28;;;22.80;56.70;;;;;;4979276;28;86977;-62
2022/06/17 06:10:45;;;;;;;9.35;3.40;;;22.80;56.20;;;;;;4978571;28;89236;-62
2022/06/17 06:13:16;;;;;;;5.90;3.25;;;22.90;56.20;;;;;;4978729;28;87579;-62
2022/06/17 06:15:45;;;;;;;8.15;3.25;;;22.80;56.10;;;;;;4978312;28;87245;-62
2022/06/17 06:18:16;;;;;;;11.98;4.10;;;22.90;56.40;;;;;;4979447;28;86913;-61
2022/06/17 06:20:42;;;;;;;9.25;3.80;;;22.90;56.30;;;;;;4978095;28;87599;-61
2022/06/17 06:23:08;;;;;;;10.85;3.10;;;22.90;56.20;;;;;;4973091;28;89276;-61
2022/06/17 06:25:34;;;;;;;12.63;3.63;;;22.90;56.10;;;;;;4978853;28;89569;-61
2022/06/17 06:28:08;;;;;;;12.10;2.97;;;22.90;55.40;;;;;;4978349;28;88433;-62
2022/06/17 06:30:34;;;;;;;11.30;3.25;;;22.90;55.00;;;;;;4977711;28;87103;-61
2022/06/17 06:33:02;;;;;;;11.98;2.92;;;22.90;54.70;;;;;;4976205;28;90083;-62
2022/06/17 06:35:33;;;;;;;10.88;3.50;;;22.90;54.60;;;;;;4978026;28;87955;-61
2022/06/17 06:38:00;;;;;;;11.50;3.30;;;22.90;54.40;;;;;;4976916;28;87391;-61
2022/06/17 06:40:26;;;;;;;9.48;3.28;;;22.90;54.30;;;;;;4977745;28;87500;-61
2022/06/17 06:42:52;;;;;;;6.57;3.33;;;22.80;54.60;;;;;;4978485;28;87921;-62
2022/06/17 06:45:24;;;;;;;12.52;3.20;;;22.90;54.30;;;;;;4978239;28;87231;-62
2022/06/17 06:47:56;;;;;;;14.63;3.60;;;22.90;54.20;;;;;;4973236;28;87354;-61
2022/06/17 06:50:31;;;;;;;10.32;3.22;;;22.90;54.40;;;;;;4977070;28;88694;-61
2022/06/17 06:52:58;;;;;;;5.32;2.67;;;22.90;54.30;;;;;;4977205;28;89104;-62
2022/06/17 06:55:24;;;;;;;32.58;5.95;;;22.90;54.40;;;;;;4976426;28;90856;-62
2022/06/17 06:57:52;;;;;;;24.80;5.28;;;22.80;54.70;;;;;;4950049;28;87497;-61
2022/06/17 07:00:28;;;;;;;28.00;5.60;;;22.90;54.80;;;;;;4987041;28;86963;-62
2022/06/17 07:02:53;;;;;;;10.88;3.13;;;22.90;54.90;;;;;;4977701;28;88302;-61
2022/06/17 07:05:19;;;;;;;21.80;5.82;;;22.90;55.10;;;;;;4969401;28;87726;-61
2022/06/17 07:07:45;;;;;;;25.75;5.20;;;22.90;54.90;;;;;;4967939;28;87581;-61
2022/06/17 07:10:20;;;;;;;17.30;5.20;;;22.90;54.80;;;;;;4976024;28;89233;-61
2022/06/17 07:12:46;;;;;;;12.93;3.90;;;22.90;54.70;;;;;;4977877;28;87504;-61
2022/06/17 07:15:12;;;;;;;19.48;4.90;;;22.90;54.60;;;;;;4978024;28;87733;-62
2022/06/17 07:17:39;;;;;;;24.73;4.88;;;22.90;55.00;;;;;;4971880;28;87893;-62
2022/06/17 07:20:09;;;;;;;23.05;4.20;;;22.90;55.00;;;;;;4980852;28;87433;-62
2022/06/17 07:22:36;;;;;;;20.05;4.97;;;22.90;55.10;;;;;;4980447;28;89522;-61
2022/06/17 07:25:02;;;;;;;15.70;4.72;;;22.90;55.10;;;;;;4979594;28;87834;-61
2022/06/17 07:27:28;;;;;;;16.17;4.70;;;22.90;55.20;;;;;;4978959;28;87355;-61
2022/06/17 07:29:54;;;;;;;21.25;5.28;;;22.90;55.40;;;;;;4978385;28;89133;-62
2022/06/17 07:32:19;;;;;;;21.55;4.90;;;22.90;55.50;;;;;;4978231;28;91546;-61
2022/06/17 07:34:47;;;;;;;16.83;4.60;;;22.90;55.60;;;;;;4980359;28;88419;-61
2022/06/17 07:39:58;;;;;;;17.65;5.63;;;22.90;55.70;;;;;;4980928;28;86979;-62
2022/06/17 07:42:40;;;;;;;12.00;4.82;;;22.90;55.50;;;;;;4978512;28;90178;-61
2022/06/17 07:45:10;;;;;;;10.27;4.32;;;22.90;55.70;;;;;;4980471;28;88245;-61
2022/06/17 07:47:36;;;;;;;15.48;5.35;;;22.90;55.70;;;;;;4978780;28;88150;-61
2022/06/17 07:50:07;;;;;;;9.23;3.70;;;22.90;55.80;;;;;;4980357;28;86964;-61
2022/06/17 07:52:32;;;;;;;11.30;3.80;;;22.90;55.80;;;;;;4978579;28;92467;-61
2022/06/17 07:54:58;;;;;;;13.55;4.45;;;22.90;55.90;;;;;;4981178;28;86931;-61
2022/06/17 07:57:23;;;;;;;15.65;4.00;;;22.90;55.80;;;;;;4980986;28;87434;-61
2022/06/17 07:59:49;;;;;;;12.07;4.53;;;22.90;55.90;;;;;;4996051;28;89702;-62
2022/06/17 08:02:15;;;;;;;11.60;3.65;;;22.90;55.90;;;;;;4980158;28;87073;-62
2022/06/17 08:04:41;;;;;;;8.73;3.58;;;23.00;56.00;;;;;;4980988;28;87393;-61
2022/06/17 08:07:07;;;;;;;10.20;4.25;;;22.90;55.70;;;;;;4980620;28;87792;-61
2022/06/17 08:09:33;;;;;;;11.50;4.32;;;22.90;55.80;;;;;;4980970;28;86913;-61
2022/06/17 08:11:59;;;;;;;13.38;3.97;;;22.90;55.80;;;;;;4980700;28;87748;-62
2022/06/17 08:14:25;;;;;;;14.50;4.22;;;22.90;56.00;;;;;;4981130;28;87314;-61
2022/06/17 08:16:51;;;;;;;13.23;4.22;;;22.90;56.00;;;;;;4981448;28;87456;-61
2022/06/17 08:19:16;;;;;;;9.20;3.83;;;23.00;56.10;;;;;;4980942;28;87097;-61
2022/06/17 08:21:42;;;;;;;9.02;3.95;;;22.90;56.00;;;;;;4980771;28;88138;-62
2022/06/17 08:24:08;;;;;;;11.43;4.32;;;22.90;55.90;;;;;;4980513;28;87152;-61
2022/06/17 08:26:34;;;;;;;11.35;3.75;;;23.00;56.00;;;;;;4979527;28;87227;-62
2022/06/17 08:29:00;;;;;;;10.20;3.92;;;23.00;56.10;;;;;;4980215;28;86845;-62
2022/06/17 08:31:26;;;;;;;10.10;3.42;;;22.90;56.10;;;;;;4979989;28;88627;-62
2022/06/17 08:33:51;;;;;;;12.68;4.13;;;22.90;56.10;;;;;;4980197;28;89751;-61
2022/06/17 08:36:24;;;;;;;12.27;4.18;;;23.00;56.20;;;;;;4980165;28;86851;-61
2022/06/17 08:38:53;;;;;;;8.50;3.72;;;22.90;56.10;;;;;;4980315;28;86933;-61
2022/06/17 08:41:25;;;;;;;10.32;3.75;;;22.90;56.10;;;;;;4978586;28;90237;-62
2022/06/17 08:44:09;;;;;;;8.15;3.30;;;22.90;56.20;;;;;;4995375;28;90971;-61
2022/06/17 08:47:12;;;;;;;6.80;3.65;;;22.90;56.10;;;;;;4995847;28;86950;-61
2022/06/17 08:49:46;;;;;;;12.32;4.32;;;23.00;56.30;;;;;;4980904;28;87677;-61
2022/06/17 08:52:49;;;;;;;9.98;3.58;;;23.00;56.30;;;;;;4979965;28;88115;-61
2022/06/17 08:55:33;;;;;;;7.63;3.63;;;23.00;56.40;;;;;;4980742;28;87374;-61
2022/06/17 08:58:13;;;;;;;10.82;4.03;;;23.00;56.90;;;;;;4979736;28;87892;-61
2022/06/17 09:00:41;;;;;;;7.70;3.42;;;22.90;56.40;;;;;;4979515;28;86995;-61
2022/06/17 09:03:29;;;;;;;7.65;3.53;;;22.90;56.40;;;;;;4979525;28;88084;-61
2022/06/17 09:06:15;;;;;;;6.55;3.40;;;23.00;56.50;;;;;;4979451;28;87536;-61
2022/06/17 09:08:56;;;;;;;8.32;3.67;;;22.90;56.40;;;;;;4979570;28;86998;-62
2022/06/17 09:11:35;;;;;;;8.48;3.40;;;22.90;56.40;;;;;;4978723;28;86846;-61
2022/06/17 09:14:31;;;;;;;8.52;3.63;;;23.00;56.50;;;;;;4977886;28;88136;-62
2022/06/17 09:17:44;;;;;;;7.45;3.40;;;23.00;56.50;;;;;;4978611;28;86856;-62
2022/06/17 09:20:17;;;;;;;11.15;3.47;;;23.00;56.60;;;;;;4943519;28;87031;-61
2022/06/17 09:22:49;;;;;;;5.25;2.97;;;23.00;56.60;;;;;;4943846;28;88118;-61
2022/06/17 09:25:19;;;;;;;8.00;3.22;;;23.00;56.50;;;;;;4954437;28;89027;-61
2022/06/17 09:27:50;;;;;;;8.70;3.33;;;23.00;56.50;;;;;;4979637;28;88288;-61
2022/06/17 09:30:22;;;;;;;9.73;3.63;;;23.00;56.60;;;;;;4979285;28;86964;-61
2022/06/17 09:32:57;;;;;;;11.77;3.75;;;23.00;56.60;;;;;;4977811;28;88648;-61
2022/06/17 09:35:50;;;;;;;8.73;3.17;;;23.00;57.00;;;;;;4979113;28;88045;-62
2022/06/17 09:38:33;;;;;;;6.85;2.97;;;23.00;56.90;;;;;;4980705;28;90989;-61
2022/06/17 09:41:13;;;;;;;11.20;3.20;;;23.00;57.00;;;;;;4979933;28;86935;-62
2022/06/17 09:44:16;;;;;;;8.55;3.13;;;23.00;57.10;;;;;;4978284;28;90462;-61
2022/06/17 09:46:56;;;;;;;7.82;3.30;;;23.00;57.40;;;;;;4979234;28;88081;-62
2022/06/17 09:49:47;;;;;;;9.98;3.60;;;23.00;57.40;;;;;;4977107;28;90924;-61
2022/06/17 09:52:30;;;;;;;13.50;3.75;;;23.00;57.40;;;;;;4976121;28;88291;-62
2022/06/17 09:55:16;;;;;;;9.93;3.70;;;23.00;57.40;;;;;;4979261;28;86950;-62
2022/06/17 09:58:03;;;;;;;10.25;3.33;;;23.00;57.50;;;;;;4993420;28;89852;-61
2022/06/17 10:00:43;;;;;;;8.57;3.45;;;23.00;57.50;;;;;;4979305;28;88388;-61
2022/06/17 10:03:23;;;;;;;11.10;3.22;;;23.00;57.40;;;;;;4979554;28;86989;-61
2022/06/17 10:06:15;;;;;;;9.25;3.50;;;23.00;57.70;;;;;;4978132;28;86946;-61
2022/06/17 10:09:01;;;;;;;12.65;3.75;;;23.00;57.60;;;;;;4978201;28;87613;-62
2022/06/17 10:11:52;;;;;;;6.90;3.13;;;23.00;57.50;;;;;;4978379;28;87360;-62
2022/06/17 10:14:25;;;;;;;8.75;3.30;;;23.00;57.50;;;;;;4977130;28;87384;-62
2022/06/17 10:20:36;;;;;;;8.38;3.22;;;23.00;57.60;;;;;;4976661;28;89854;-61
2022/06/17 10:23:23;;;;;;;7.10;3.40;;;23.00;57.60;;;;;;4955682;28;88252;-61
2022/06/17 10:26:25;;;;;;;5.68;2.80;;;23.00;57.70;;;;;;4979496;28;86880;-62
2022/06/17 10:28:53;;;;;;;7.75;3.00;;;23.00;58.00;;;;;;4976771;28;87037;-62
2022/06/17 10:31:33;;;;;;;5.90;3.10;;;23.00;58.20;;;;;;4978575;28;87718;-62
2022/06/17 10:34:03;;;;;;;9.07;3.28;;;23.00;58.20;;;;;;4993446;28;90486;-62
2022/06/17 10:36:31;;;;;;;;;;;23.00;58.30;;;;;;4979496;28;87365;-61
2022/06/17 10:38:57;;;;;;;5.85;3.05;;;23.00;58.40;;;;;;4980197;28;86690;-62
2022/06/17 10:41:23;;;;;;;12.07;3.03;;;23.00;58.50;;;;;;4979197;28;88067;-62
2022/06/17 10:43:51;;;;;;;9.38;3.35;;;23.00;58.60;;;;;;4978959;28;87334;-62
2022/06/17 10:46:23;;;;;;;6.70;3.30;;;23.00;58.70;;;;;;4972961;28;88208;-62
2022/06/17 10:48:54;;;;;;;5.65;2.78;;;23.00;58.30;;;;;;4978252;28;87550;-61
2022/06/17 10:51:20;;;;;;;6.57;3.20;;;23.00;58.70;;;;;;4980902;28;87641;-61
2022/06/17 10:54:02;;;;;;;7.13;3.00;;;23.00;58.70;;;;;;4980793;28;88024;-62
2022/06/17 10:56:34;;;;;;;9.00;3.00;;;23.00;58.50;;;;;;4978770;28;88345;-61
2022/06/17 10:58:59;;;;;;;6.50;2.97;;;23.00;58.50;;;;;;4989410;28;88703;-62
2022/06/17 11:01:41;;;;;;;6.60;3.25;;;23.00;58.70;;;;;;4973795;28;88470;-61
2022/06/17 11:04:12;;;;;;;5.32;2.75;;;23.00;58.70;;;;;;4980391;28;87621;-62
2022/06/17 11:06:52;;;;;;;7.85;3.13;;;23.00;58.70;;;;;;4980547;28;86919;-61
2022/06/17 11:09:24;;;;;;;;;;;23.00;58.90;;;;;;4981554;28;87323;-59
2022/06/17 11:12:10;;;;;;;5.88;3.10;;;23.00;58.80;;;;;;4976316;28;88170;-62
2022/06/17 11:14:45;;;;;;;6.75;2.95;;;23.00;58.70;;;;;;4977513;28;88757;-62
2022/06/17 11:17:26;;;;;;;7.00;2.55;;;23.00;58.90;;;;;;4978411;28;86926;-62
2022/06/17 11:19:56;;;;;;;6.85;2.70;;;23.00;59.00;;;;;;4981394;28;86958;-62
2022/06/17 11:22:34;;;;;;;4.82;2.85;;;23.00;59.20;;;;;;4978101;28;87542;-61
2022/06/17 11:25:22;;;;;;;6.13;3.25;;;23.00;59.20;;;;;;4979657;28;88860;-62
2022/06/17 11:27:53;;;;;;;8.35;2.85;;;23.00;59.10;;;;;;4981541;28;86939;-61
2022/06/17 11:30:24;;;;;;;5.25;3.03;;;23.00;58.80;;;;;;4981724;28;86145;-62
2022/06/17 11:32:51;;;;;;;7.03;2.45;;;23.00;58.80;;;;;;4981499;28;87764;-62
2022/06/17 11:35:28;;;;;;;3.83;2.13;;;23.00;58.50;;;;;;4979744;28;90864;-62
2022/06/17 11:37:56;;;;;;;5.18;2.58;;;23.00;58.10;;;;;;4981109;28;87888;-62
2022/06/17 11:40:25;;;;;;;6.32;2.60;;;23.00;57.80;;;;;;4979227;28;87270;-62
2022/06/17 11:42:50;;;;;;;;;;;23.00;57.30;;;;;;4979066;28;90564;-62
2022/06/17 11:45:30;;;;;;;15.90;4.93;;;23.00;57.30;;;;;;4980926;28;89719;-62
2022/06/17 11:48:01;;;;;;;19.98;6.95;;;23.00;57.60;;;;;;4996664;28;86977;-62
2022/06/17 11:50:31;;;;;;;20.25;8.20;;;23.00;57.90;;;;;;4995899;28;89670;-62
2022/06/17 11:53:04;;;;;;;23.67;9.68;;;23.00;58.10;;;;;;4979949;28;90138;-62
2022/06/17 11:55:32;;;;;;;28.80;9.85;;;23.00;58.40;;;;;;4976587;28;86928;-62
2022/06/17 11:57:58;;;;;;;33.17;9.50;;;23.00;58.50;;;;;;4980709;28;86895;-61
2022/06/17 12:00:42;;;;;;;28.08;9.13;;;23.00;58.70;;;;;;4978372;28;90312;-61
2022/06/17 12:03:08;;;;;;;21.23;8.68;;;23.00;58.80;;;;;;4978441;28;89494;-61
2022/06/17 12:05:37;;;;;;;22.52;7.35;;;23.00;58.70;;;;;;4980556;28;88635;-61
2022/06/17 12:08:25;;;;;;;18.45;6.75;;;23.00;58.60;;;;;;4980662;28;87377;-61
2022/06/17 12:10:55;;;;;;;20.17;6.82;;;23.00;58.60;;;;;;4979837;28;87292;-61
2022/06/17 12:13:30;;;;;;;17.13;6.35;;;23.00;58.70;;;;;;4978721;28;91284;-62
2022/06/17 12:15:59;;;;;;;15.43;6.55;;;23.00;58.60;;;;;;4980147;28;86940;-62
2022/06/17 12:18:34;;;;;;;15.07;6.60;;;23.00;58.80;;;;;;4996134;28;87213;-61
2022/06/17 12:21:47;;;;;;;17.60;6.20;;;23.10;58.90;;;;;;4996493;28;89412;-62
2022/06/17 12:24:23;;;;;;;14.77;6.40;;;23.10;58.80;;;;;;4964355;28;87630;-62
2022/06/17 12:27:07;;;;;;;19.00;6.95;;;23.10;58.80;;;;;;4979156;28;87347;-61
2022/06/17 12:29:42;;;;;;;20.45;6.80;;;23.00;58.80;;;;;;4994591;28;87950;-61
2022/06/17 12:32:21;;;;;;;10.43;5.68;;;23.10;58.80;;;;;;4989427;28;89712;-62
2022/06/17 12:35:05;;;;;;;11.00;4.47;;;23.10;58.90;;;;;;4963596;28;91545;-62
2022/06/17 12:38:04;;;;;;;7.63;3.72;;;23.10;58.10;;;;;;4972735;28;87567;-62
2022/06/17 12:40:32;;;;;;;10.15;3.97;;;23.10;57.70;;;;;;4980556;28;87259;-62
2022/06/17 12:43:16;;;;;;;6.45;3.45;;;23.10;57.70;;;;;;4977753;28;88033;-61
2022/06/17 12:46:00;;;;;;;9.65;3.10;;;23.10;57.70;;;;;;4975749;28;87619;-62
2022/06/17 12:54:58;;;;;;;21.05;11.77;;;23.10;57.40;;;;;;4974261;28;86811;-61
2022/06/17 12:57:36;;;;;;;39.40;22.30;;;23.10;58.00;;;;;;4977123;28;90892;-62
2022/06/17 13:00:26;;;;;;;36.42;22.05;;;23.20;58.50;;;;;;4988810;28;92837;-61
2022/06/17 13:03:04;;;;;;;16.63;8.20;;;23.10;58.60;;;;;;4973592;28;89385;-62
2022/06/17 13:05:47;;;;;;;24.80;13.00;;;23.20;58.30;;;;;;4975316;28;87587;-62
2022/06/17 13:08:50;;;;;;;29.85;16.45;;;23.20;60.10;;;;;;4970643;28;89649;-62
2022/06/17 13:11:29;;;;;;;28.80;16.85;;;23.30;60.00;;;;;;4977848;28;87654;-61
2022/06/17 13:14:13;;;;;;;29.27;16.02;;;23.40;60.20;;;;;;4975628;28;87611;-62
2022/06/17 13:16:48;;;;;;;27.02;15.43;;;23.50;60.20;;;;;;4978684;28;86773;-61
2022/06/17 13:19:46;;;;;;;26.63;15.32;;;23.60;60.20;;;;;;4979073;28;87498;-60
2022/06/17 13:22:44;;;;;;;26.58;15.27;;;23.60;60.10;;;;;;4961942;28;87942;-61
2022/06/17 13:25:45;;;;;;;29.52;14.77;;;23.70;59.90;;;;;;4976852;28;87852;-62
2022/06/17 13:28:40;;;;;;;25.63;13.65;;;23.70;59.50;;;;;;4975099;28;87367;-61
2022/06/17 13:31:17;;;;;;;32.33;14.85;;;23.70;59.40;;;;;;4987823;28;91289;-62
2022/06/17 13:34:02;;;;;;;28.50;13.25;;;23.70;59.50;;;;;;4977694;28;88083;-61
2022/06/17 13:36:49;;;;;;;31.98;14.77;;;23.70;60.20;;;;;;4977854;28;87280;-61
2022/06/17 13:39:28;;;;;;;24.95;13.57;;;23.70;59.70;;;;;;4977879;28;87022;-62